createdAt,value
2018-07-14T00:01:35.873Z,66.20
2018-07-14T00:04:04.109Z,66.50
2018-07-14T00:06:32.345Z,66.50
2018-07-14T00:09:00.590Z,66.70
2018-07-14T00:11:29.078Z,66.60
2018-07-14T00:13:57.312Z,66.30
2018-07-14T00:16:26.062Z,66.10
2018-07-14T00:18:54.296Z,66.10
2018-07-14T00:21:22.561Z,65.90
2018-07-14T00:23:50.799Z,66.10
2018-07-14T00:26:19.547Z,66.50
2018-07-14T00:28:48.293Z,66.70
2018-07-14T00:31:16.797Z,67.60
2018-07-14T00:33:45.057Z,67.30
2018-07-14T00:36:13.276Z,67.40
2018-07-14T00:38:41.704Z,67.70
2018-07-14T00:41:10.028Z,68.00
2018-07-14T00:43:38.263Z,68.10
2018-07-14T00:46:06.499Z,68.10
2018-07-14T00:48:34.916Z,68.10
2018-07-14T00:51:03.157Z,68.10
2018-07-14T00:53:31.400Z,68.40
2018-07-14T00:55:59.679Z,68.20
2018-07-14T00:58:28.146Z,68.10
2018-07-14T01:00:56.400Z,68.10
2018-07-14T01:03:24.645Z,68.10
2018-07-14T01:05:52.899Z,67.90
2018-07-14T01:08:21.138Z,68.00
2018-07-14T01:10:49.353Z,68.10
2018-07-14T01:13:17.560Z,68.20
2018-07-14T01:15:45.814Z,68.60
2018-07-14T01:18:14.053Z,68.50
2018-07-14T01:20:42.268Z,68.50
2018-07-14T01:23:10.589Z,68.80
2018-07-14T01:25:38.801Z,68.70
2018-07-14T01:28:07.046Z,68.70
2018-07-14T01:30:35.288Z,68.60
2018-07-14T01:33:03.502Z,68.90
2018-07-14T01:35:31.730Z,68.70
2018-07-14T01:37:59.945Z,68.70
2018-07-14T01:40:28.265Z,68.40
2018-07-14T01:42:56.500Z,68.70
2018-07-14T01:45:25.128Z,68.70
2018-07-14T01:47:53.366Z,68.60
2018-07-14T01:50:21.632Z,68.50
2018-07-14T01:52:49.905Z,68.70
2018-07-14T01:55:18.169Z,68.50
2018-07-14T01:57:46.397Z,68.60
2018-07-14T02:00:14.641Z,68.60
2018-07-14T02:02:42.926Z,68.80
2018-07-14T02:05:11.140Z,68.80
2018-07-14T02:07:39.394Z,69.20
2018-07-14T02:10:07.677Z,68.90
2018-07-14T02:12:35.894Z,68.90
2018-07-14T02:15:05.316Z,69.00
2018-07-14T02:17:33.580Z,68.80
2018-07-14T02:20:01.851Z,68.80
2018-07-14T02:22:30.088Z,68.80
2018-07-14T02:24:58.321Z,68.90
2018-07-14T02:27:26.569Z,68.90
2018-07-14T02:29:54.806Z,69.00
2018-07-14T02:32:23.081Z,69.20
2018-07-14T02:34:51.313Z,69.40
2018-07-14T02:37:19.558Z,69.40
2018-07-14T02:39:47.784Z,69.40
2018-07-14T02:42:15.993Z,69.60
2018-07-14T02:44:44.302Z,69.70
2018-07-14T02:47:12.544Z,69.80
2018-07-14T02:52:08.766Z,70.20
2018-07-14T02:54:37.037Z,70.00
2018-07-14T02:57:05.298Z,69.90
2018-07-14T02:59:33.704Z,69.70
2018-07-14T03:04:29.947Z,69.50
2018-07-14T03:06:58.187Z,69.50
2018-07-14T03:09:26.442Z,69.80
2018-07-14T03:11:54.861Z,69.80
2018-07-14T03:14:23.218Z,69.90
2018-07-14T03:16:51.431Z,70.00
2018-07-14T03:19:19.710Z,69.90
2018-07-14T03:21:47.874Z,70.20
2018-07-14T03:24:16.102Z,70.00
2018-07-14T03:26:44.362Z,69.90
2018-07-14T03:31:40.577Z,69.80
2018-07-14T03:34:08.805Z,70.80
2018-07-14T03:36:37.059Z,70.00
2018-07-14T03:39:05.577Z,69.80
2018-07-14T03:41:34.018Z,70.00
2018-07-14T03:44:02.439Z,70.70
2018-07-14T03:46:30.846Z,69.90
2018-07-14T03:48:59.285Z,70.20
2018-07-14T03:51:27.557Z,70.30
2018-07-14T03:53:55.850Z,70.90
2018-07-14T03:56:24.128Z,70.40
2018-07-14T03:58:52.357Z,70.50
2018-07-14T04:01:20.682Z,70.60
2018-07-14T04:03:49.557Z,70.50
2018-07-14T04:06:17.799Z,70.30
2018-07-14T04:08:46.044Z,71.00
2018-07-14T04:13:42.295Z,70.30
2018-07-14T04:16:10.732Z,70.20
2018-07-14T04:18:38.981Z,70.20
2018-07-14T04:21:07.425Z,70.30
2018-07-14T04:23:35.661Z,70.20
2018-07-14T04:26:03.920Z,69.90
2018-07-14T04:28:32.140Z,70.20
2018-07-14T04:31:00.369Z,70.20
2018-07-14T04:33:28.605Z,70.20
2018-07-14T04:35:56.845Z,70.10
2018-07-14T04:38:25.166Z,70.10
2018-07-14T04:40:53.393Z,70.00
2018-07-14T04:43:21.617Z,70.00
2018-07-14T04:45:49.848Z,69.70
2018-07-14T04:48:18.073Z,69.30
2018-07-14T04:50:46.506Z,69.90
2018-07-14T04:53:14.788Z,69.20
2018-07-14T04:55:43.186Z,69.30
2018-07-14T04:58:11.454Z,69.00
2018-07-14T05:00:39.684Z,69.40
2018-07-14T05:03:08.058Z,69.30
2018-07-14T05:05:36.367Z,69.20
2018-07-14T05:08:05.784Z,69.00
2018-07-14T05:10:34.020Z,68.80
2018-07-14T05:13:02.232Z,68.80
2018-07-14T05:15:30.477Z,68.70
2018-07-14T05:17:58.704Z,68.60
2018-07-14T05:20:26.931Z,68.20
2018-07-14T05:22:55.174Z,68.40
2018-07-14T05:25:23.721Z,67.60
2018-07-14T05:27:51.949Z,67.30
2018-07-14T05:30:20.149Z,67.30
2018-07-14T05:32:48.370Z,65.00
2018-07-14T05:35:16.612Z,63.40
2018-07-14T05:37:44.845Z,62.50
2018-07-14T05:40:13.072Z,62.30
2018-07-14T05:42:41.297Z,64.30
2018-07-14T05:45:09.525Z,64.30
2018-07-14T05:47:37.741Z,64.10
2018-07-14T05:50:06.168Z,64.30
2018-07-14T05:52:34.429Z,62.90
2018-07-14T05:55:02.725Z,61.40
2018-07-14T05:59:59.105Z,47.90
2018-07-14T06:02:27.522Z,47.60
2018-07-14T06:04:55.808Z,42.60
2018-07-14T06:07:24.070Z,42.20
2018-07-14T06:09:52.320Z,38.30
2018-07-14T06:12:20.554Z,36.40
2018-07-14T06:14:48.873Z,36.80
2018-07-14T06:17:17.173Z,39.20
2018-07-14T06:19:45.442Z,37.30
2018-07-14T06:22:13.662Z,33.20
2018-07-14T06:24:41.888Z,32.50
2018-07-14T06:27:10.154Z,33.10
2018-07-14T06:29:38.437Z,32.70
2018-07-14T06:32:06.869Z,32.40
2018-07-14T06:34:35.056Z,32.30
2018-07-14T06:37:03.313Z,32.60
2018-07-14T06:39:32.157Z,31.70
2018-07-14T06:42:00.582Z,32.40
2018-07-14T06:44:29.377Z,31.90
2018-07-14T06:46:57.763Z,30.60
2018-07-14T06:49:26.004Z,32.20
2018-07-14T06:51:54.323Z,33.00
2018-07-14T06:54:22.697Z,31.80
2018-07-14T06:56:50.932Z,27.40
2018-07-14T06:59:19.164Z,28.20
2018-07-14T07:01:47.419Z,29.70
2018-07-14T07:04:15.657Z,27.80
2018-07-14T07:06:43.930Z,27.40
2018-07-14T07:09:12.413Z,28.90
2018-07-14T07:11:45.826Z,28.10
2018-07-14T07:14:14.241Z,30.90
2018-07-14T07:16:42.473Z,29.00
2018-07-14T07:19:10.927Z,28.60
2018-07-14T07:21:39.196Z,28.30
2018-07-14T07:24:07.496Z,27.80
2018-07-14T07:26:35.750Z,28.70
2018-07-14T07:29:04.107Z,27.70
2018-07-14T07:31:32.337Z,29.90
2018-07-14T07:34:00.674Z,29.70
2018-07-14T07:36:28.948Z,29.20
2018-07-14T07:38:57.220Z,29.00
2018-07-14T07:41:25.479Z,31.60
2018-07-14T07:43:53.766Z,28.40
2018-07-14T07:46:22.122Z,27.20
2018-07-14T07:48:50.373Z,28.20
2018-07-14T07:51:18.967Z,27.90
2018-07-14T07:53:47.259Z,29.30
2018-07-14T07:56:15.498Z,29.50
2018-07-14T07:58:43.724Z,29.70
2018-07-14T08:01:11.950Z,31.90
2018-07-14T08:03:40.213Z,34.00
2018-07-14T08:06:08.462Z,35.00
2018-07-14T08:08:36.944Z,33.80
2018-07-14T08:11:05.165Z,31.30
2018-07-14T08:13:33.622Z,30.10
2018-07-14T08:16:02.076Z,30.50
2018-07-14T08:18:30.318Z,30.70
2018-07-14T08:20:58.554Z,33.10
2018-07-14T08:23:26.834Z,34.10
2018-07-14T08:25:55.257Z,33.70
2018-07-14T08:28:23.503Z,33.10
2018-07-14T08:30:51.793Z,30.60
2018-07-14T08:33:20.064Z,31.60
2018-07-14T08:35:48.316Z,33.50
2018-07-14T08:38:16.810Z,31.40
2018-07-14T08:40:45.082Z,33.50
2018-07-14T08:43:13.299Z,32.10
2018-07-14T08:45:41.663Z,30.50
2018-07-14T08:48:09.904Z,30.60
2018-07-14T08:50:38.157Z,31.00
2018-07-14T08:53:06.492Z,32.60
2018-07-14T08:55:34.834Z,33.20
2018-07-14T08:58:03.097Z,32.10
2018-07-14T09:00:31.375Z,32.90
2018-07-14T09:02:59.612Z,33.40
2018-07-14T09:05:27.931Z,35.30
2018-07-14T09:07:56.153Z,36.00
2018-07-14T09:10:24.468Z,33.70
2018-07-14T09:12:52.716Z,33.40
2018-07-14T09:15:20.985Z,32.90
2018-07-14T09:17:49.223Z,33.60
2018-07-14T09:20:17.793Z,33.60
2018-07-14T09:22:46.069Z,33.60
2018-07-14T09:25:14.367Z,34.80
2018-07-14T09:27:42.960Z,36.10
2018-07-14T09:30:11.281Z,35.90
2018-07-14T09:32:39.653Z,35.90
2018-07-14T09:35:07.918Z,36.60
2018-07-14T09:37:36.174Z,38.50
2018-07-14T09:40:04.461Z,36.90
2018-07-14T09:42:32.729Z,36.90
2018-07-14T09:45:00.971Z,35.80
2018-07-14T09:47:29.204Z,36.80
2018-07-14T09:49:57.452Z,36.60
2018-07-14T09:52:25.714Z,36.80
2018-07-14T09:54:53.996Z,37.60
2018-07-14T09:57:22.286Z,38.50
2018-07-14T09:59:50.547Z,37.30
2018-07-14T10:02:18.885Z,38.30
2018-07-14T10:04:47.150Z,38.90
2018-07-14T10:07:15.397Z,39.80
2018-07-14T10:09:43.652Z,40.50
2018-07-14T10:12:11.960Z,39.70
2018-07-14T10:14:40.204Z,39.90
2018-07-14T10:17:08.466Z,40.40
2018-07-14T10:19:36.701Z,41.30
2018-07-14T10:22:05.000Z,41.00
2018-07-14T10:24:33.260Z,41.60
2018-07-14T10:27:03.534Z,40.60
2018-07-14T10:29:31.928Z,41.20
2018-07-14T10:32:00.181Z,41.30
2018-07-14T10:34:28.421Z,41.40
2018-07-14T10:36:56.678Z,41.30
2018-07-14T10:39:25.436Z,41.10
2018-07-14T10:41:53.668Z,41.50
2018-07-14T10:44:21.914Z,40.40
2018-07-14T10:46:50.313Z,40.10
2018-07-14T10:49:18.785Z,40.20
2018-07-14T10:51:47.235Z,40.90
2018-07-14T10:54:15.502Z,40.40
2018-07-14T10:56:43.778Z,40.00
2018-07-14T10:59:12.008Z,41.20
2018-07-14T11:01:40.258Z,41.40
2018-07-14T11:04:08.594Z,41.60
2018-07-14T11:06:36.886Z,42.50
2018-07-14T11:09:06.120Z,42.60
2018-07-14T11:11:34.357Z,43.10
2018-07-14T11:14:02.596Z,43.10
2018-07-14T11:16:30.871Z,43.30
2018-07-14T11:18:59.106Z,42.80
2018-07-14T11:21:27.369Z,43.00
2018-07-14T11:23:55.598Z,42.90
2018-07-14T11:26:24.246Z,43.40
2018-07-14T11:28:52.473Z,42.60
2018-07-14T11:33:55.266Z,42.80
2018-07-14T11:36:23.561Z,43.00
2018-07-14T11:38:51.782Z,42.60
2018-07-14T11:41:20.041Z,42.70
2018-07-14T11:43:48.484Z,43.60
2018-07-14T11:46:16.729Z,43.70
2018-07-14T11:48:45.005Z,42.90
2018-07-14T11:53:41.309Z,43.10
2018-07-14T11:56:09.551Z,42.00
2018-07-14T11:58:38.035Z,42.20
2018-07-14T12:01:06.320Z,43.00
2018-07-14T12:03:34.538Z,41.80
2018-07-14T12:06:02.796Z,42.00
2018-07-14T12:08:31.029Z,40.60
2018-07-14T12:10:59.269Z,41.20
2018-07-14T12:13:27.732Z,40.90
2018-07-14T12:15:55.963Z,40.90
2018-07-14T12:18:30.696Z,41.90
2018-07-14T12:20:59.435Z,40.50
2018-07-14T12:23:27.678Z,41.30
2018-07-14T12:25:55.943Z,41.00
2018-07-14T12:28:24.187Z,41.10
2018-07-14T12:30:52.601Z,41.50
2018-07-14T12:33:20.872Z,41.80
2018-07-14T12:35:49.118Z,41.40
2018-07-14T12:38:17.348Z,41.40
2018-07-14T12:40:46.529Z,41.50
2018-07-14T12:43:14.826Z,41.60
2018-07-14T12:45:43.033Z,41.90
2018-07-14T12:48:11.268Z,41.70
2018-07-14T12:50:40.449Z,41.10
2018-07-14T12:53:08.675Z,40.90
2018-07-14T12:55:36.934Z,41.50
2018-07-14T12:58:05.982Z,41.00
2018-07-14T13:00:35.594Z,40.40
2018-07-14T13:03:03.859Z,40.80
2018-07-14T13:05:32.141Z,40.40
2018-07-14T13:08:00.376Z,40.00
2018-07-14T13:10:28.605Z,39.70
2018-07-14T13:12:56.870Z,39.90
2018-07-14T13:15:25.112Z,39.80
2018-07-14T13:17:53.360Z,39.10
2018-07-14T13:20:21.884Z,39.00
2018-07-14T13:22:50.113Z,39.60
2018-07-14T13:25:18.341Z,39.20
2018-07-14T13:27:46.591Z,38.90
2018-07-14T13:30:14.834Z,37.60
2018-07-14T13:32:49.571Z,37.20
2018-07-14T13:35:17.805Z,37.90
2018-07-14T13:37:46.036Z,38.10
2018-07-14T13:40:14.268Z,38.10
2018-07-14T13:42:42.500Z,38.00
2018-07-14T13:45:14.117Z,38.20
2018-07-14T13:47:42.351Z,37.60
2018-07-14T13:50:10.768Z,37.80
2018-07-14T13:52:43.014Z,36.90
2018-07-14T13:55:11.244Z,36.60
2018-07-14T13:57:39.949Z,37.30
2018-07-14T14:00:08.973Z,38.00
2018-07-14T14:02:37.521Z,37.00
2018-07-14T14:05:05.908Z,37.60
2018-07-14T14:07:34.951Z,37.20
2018-07-14T14:10:03.187Z,37.70
2018-07-14T14:12:31.551Z,37.70
2018-07-14T14:15:00.092Z,37.80
2018-07-14T14:17:28.306Z,37.20
2018-07-14T14:19:56.613Z,37.40
2018-07-14T14:22:24.825Z,36.70
2018-07-14T14:24:53.058Z,36.50
2018-07-14T14:27:21.287Z,36.50
2018-07-14T14:29:49.841Z,35.90
2018-07-14T14:32:18.709Z,34.80
2018-07-14T14:34:47.307Z,35.10
2018-07-14T14:37:15.553Z,35.10
2018-07-14T14:39:43.798Z,34.30
2018-07-14T14:42:12.051Z,34.60
2018-07-14T14:44:40.300Z,35.00
2018-07-14T14:47:08.560Z,35.10
2018-07-14T14:49:36.819Z,40.00
2018-07-14T14:52:06.456Z,38.50
2018-07-14T14:54:34.731Z,37.60
2018-07-14T14:57:03.013Z,36.00
2018-07-14T14:59:31.260Z,36.70
2018-07-14T15:01:59.492Z,36.60
2018-07-14T15:04:27.934Z,37.20
2018-07-14T15:06:56.366Z,36.40
2018-07-14T15:09:24.652Z,35.30
2018-07-14T15:11:56.465Z,36.00
2018-07-14T15:14:24.827Z,37.20
2018-07-14T15:16:53.181Z,37.80
2018-07-14T15:19:21.740Z,37.60
2018-07-14T15:21:50.150Z,36.00
2018-07-14T15:24:18.430Z,37.90
2018-07-14T15:26:46.706Z,38.30
2018-07-14T15:29:14.995Z,38.00
2018-07-14T15:31:43.283Z,38.20
2018-07-14T15:34:11.614Z,36.50
2018-07-14T15:36:39.848Z,36.30
2018-07-14T15:39:09.090Z,36.30
2018-07-14T15:41:37.376Z,36.90
2018-07-14T15:44:05.967Z,37.30
2018-07-14T15:46:34.337Z,37.20
2018-07-14T15:49:02.617Z,37.90
2018-07-14T15:51:30.889Z,37.00
2018-07-14T15:53:59.185Z,37.60
2018-07-14T15:56:27.446Z,36.90
2018-07-14T15:58:55.880Z,36.60
2018-07-14T16:01:24.112Z,37.20
2018-07-14T16:03:52.530Z,37.30
2018-07-14T16:06:20.821Z,37.50
2018-07-14T16:08:49.099Z,37.20
2018-07-14T16:11:17.453Z,37.10
2018-07-14T16:13:45.755Z,36.30
2018-07-14T16:16:14.008Z,36.30
2018-07-14T16:18:42.494Z,36.70
2018-07-14T16:23:38.864Z,37.60
2018-07-14T16:26:07.153Z,37.20
2018-07-14T16:28:35.398Z,37.00
2018-07-14T16:31:03.632Z,37.50
2018-07-14T16:33:31.856Z,36.90
2018-07-14T16:36:00.171Z,36.80
2018-07-14T16:38:28.514Z,36.40
2018-07-14T16:40:56.764Z,36.40
2018-07-14T16:43:25.413Z,36.10
2018-07-14T16:45:53.601Z,37.30
2018-07-14T16:48:21.833Z,37.40
2018-07-14T16:50:50.100Z,38.00
2018-07-14T16:53:18.893Z,38.10
2018-07-14T16:55:47.130Z,37.90
2018-07-14T16:58:15.498Z,37.60
2018-07-14T17:00:43.764Z,37.30
2018-07-14T17:03:12.014Z,37.60
2018-07-14T17:05:40.263Z,38.30
2018-07-14T17:08:08.590Z,38.40
2018-07-14T17:10:36.843Z,37.50
2018-07-14T17:13:05.179Z,37.50
2018-07-14T17:15:33.450Z,37.20
2018-07-14T17:20:36.313Z,37.60
2018-07-14T17:23:05.489Z,38.10
2018-07-14T17:25:33.743Z,37.80
2018-07-14T17:28:01.982Z,38.20
2018-07-14T17:30:31.126Z,38.70
2018-07-14T17:32:59.365Z,37.90
2018-07-14T17:35:27.643Z,39.30
2018-07-14T17:37:55.946Z,39.70
2018-07-14T17:40:24.544Z,38.80
2018-07-14T17:42:52.920Z,38.90
2018-07-14T17:45:21.884Z,39.00
2018-07-14T17:47:50.195Z,39.80
2018-07-14T17:50:18.549Z,39.90
2018-07-14T17:52:46.820Z,40.80
2018-07-14T17:55:15.037Z,40.60
2018-07-14T17:57:43.465Z,40.80
2018-07-14T18:00:11.741Z,41.00
2018-07-14T18:02:40.251Z,41.00
2018-07-14T18:05:08.504Z,40.90
2018-07-14T18:07:36.750Z,40.70
2018-07-14T18:10:04.977Z,41.00
2018-07-14T18:12:33.238Z,40.80
2018-07-14T18:15:01.493Z,41.50
2018-07-14T18:17:29.757Z,42.00
2018-07-14T18:19:58.014Z,42.30
2018-07-14T18:22:26.300Z,43.00
2018-07-14T18:24:54.565Z,43.50
2018-07-14T18:27:22.865Z,43.50
2018-07-14T18:29:51.133Z,43.80
2018-07-14T18:32:19.399Z,44.80
2018-07-14T18:34:47.657Z,45.20
2018-07-14T18:37:15.932Z,45.30
2018-07-14T18:39:44.243Z,45.60
2018-07-14T18:42:12.509Z,45.90
2018-07-14T18:44:40.784Z,46.20
2018-07-14T18:47:09.114Z,47.00
2018-07-14T18:49:37.397Z,47.90
2018-07-14T18:52:06.144Z,47.80
2018-07-14T18:54:34.844Z,49.20
2018-07-14T18:57:03.152Z,49.70
2018-07-14T18:59:31.862Z,50.50
2018-07-14T19:02:00.393Z,50.70
2018-07-14T19:04:28.645Z,51.40
2018-07-14T19:09:25.144Z,51.80
2018-07-14T19:11:53.463Z,52.90
2018-07-14T19:14:21.732Z,52.70
2018-07-14T19:16:50.007Z,53.40
2018-07-14T19:19:18.494Z,53.80
2018-07-14T19:21:46.923Z,54.10
2018-07-14T19:24:15.208Z,54.30
2018-07-14T19:26:43.543Z,54.90
2018-07-14T19:31:40.069Z,54.70
2018-07-14T19:34:08.372Z,55.00
2018-07-14T19:39:05.996Z,55.90
2018-07-14T19:41:34.281Z,55.50
2018-07-14T19:44:02.715Z,56.20
2018-07-14T19:46:31.003Z,55.80
2018-07-14T19:48:59.706Z,55.60
2018-07-14T19:51:27.932Z,55.70
2018-07-14T19:53:56.285Z,56.30
2018-07-14T19:56:24.662Z,56.00
2018-07-14T19:58:53.049Z,56.80
2018-07-14T20:01:21.430Z,57.10
2018-07-14T20:03:49.744Z,57.80
2018-07-14T20:06:18.047Z,58.40
2018-07-14T20:08:46.311Z,58.60
2018-07-14T20:11:14.852Z,59.40
2018-07-14T20:13:43.123Z,59.50
2018-07-14T20:16:11.386Z,60.00
2018-07-14T20:18:40.047Z,59.70
2018-07-14T20:21:08.277Z,59.80
2018-07-14T20:26:04.898Z,61.30
2018-07-14T20:28:33.248Z,62.70
2018-07-14T20:31:01.518Z,62.10
2018-07-14T20:33:29.791Z,62.20
2018-07-14T20:35:58.047Z,63.20
2018-07-14T20:38:26.313Z,63.80
2018-07-14T20:40:54.730Z,64.10
2018-07-14T20:43:23.008Z,64.30
2018-07-14T20:45:51.259Z,63.70
2018-07-14T20:48:19.518Z,64.40
2018-07-14T20:53:15.824Z,64.90
2018-07-14T20:55:44.124Z,64.50
2018-07-14T21:00:40.640Z,64.70
2018-07-14T21:03:09.131Z,64.50
2018-07-14T21:05:37.371Z,64.80
2018-07-14T21:08:06.154Z,65.20
2018-07-14T21:10:34.561Z,65.40
2018-07-14T21:13:02.806Z,65.20
2018-07-14T21:15:31.162Z,64.50
2018-07-14T21:17:59.656Z,64.60
2018-07-14T21:20:28.061Z,64.30
2018-07-14T21:22:56.288Z,65.20
2018-07-14T21:25:24.629Z,65.50
2018-07-14T21:27:52.994Z,66.10
2018-07-14T21:30:21.282Z,66.10
2018-07-14T21:32:49.876Z,66.30
2018-07-14T21:35:18.130Z,66.70
2018-07-14T21:37:46.497Z,66.70
2018-07-14T21:42:42.798Z,67.10
2018-07-14T21:45:11.044Z,67.40
2018-07-14T21:47:39.320Z,67.30
2018-07-14T21:50:07.592Z,66.80
2018-07-14T21:52:35.832Z,67.00
2018-07-14T21:55:04.157Z,67.10
2018-07-14T21:57:32.388Z,66.80
2018-07-14T22:00:00.687Z,66.90
2018-07-14T22:02:28.997Z,66.80
2018-07-14T22:04:57.245Z,67.30
2018-07-14T22:07:25.741Z,67.10
2018-07-14T22:09:54.330Z,67.20
2018-07-14T22:12:22.581Z,67.90
2018-07-14T22:14:50.856Z,67.30
2018-07-14T22:17:19.103Z,67.60
2018-07-14T22:19:47.359Z,67.60
2018-07-14T22:24:43.877Z,67.90
2018-07-14T22:27:12.175Z,68.70
2018-07-14T22:29:40.409Z,67.60
2018-07-14T22:32:08.659Z,68.70
2018-07-14T22:34:43.340Z,68.20
2018-07-14T22:37:11.615Z,68.80
2018-07-14T22:39:39.838Z,68.60
2018-07-14T22:42:08.084Z,68.20
2018-07-14T22:44:36.343Z,67.80
2018-07-14T22:47:05.090Z,67.30
2018-07-14T22:49:33.369Z,67.20
2018-07-14T22:52:01.628Z,67.10
2018-07-14T22:54:29.854Z,67.20
2018-07-14T22:56:58.104Z,67.80
2018-07-14T22:59:26.368Z,67.30
2018-07-14T23:01:54.617Z,67.80
2018-07-14T23:04:22.853Z,67.80
2018-07-14T23:06:51.277Z,68.10
2018-07-14T23:09:19.579Z,67.60
2018-07-14T23:11:47.808Z,67.30
2018-07-14T23:14:16.069Z,67.30
2018-07-14T23:16:44.318Z,67.60
2018-07-14T23:19:12.561Z,67.40
2018-07-14T23:21:41.617Z,67.00
2018-07-14T23:24:09.830Z,66.70
2018-07-14T23:26:38.097Z,66.90
2018-07-14T23:29:06.367Z,67.60
2018-07-14T23:31:34.601Z,67.60
2018-07-14T23:34:07.094Z,67.60
2018-07-14T23:36:35.502Z,67.20
2018-07-14T23:39:05.686Z,67.40
2018-07-14T23:41:34.152Z,66.80
2018-07-14T23:44:02.425Z,66.40
2018-07-14T23:46:30.673Z,65.90
2018-07-14T23:48:58.933Z,65.50
2018-07-14T23:51:27.238Z,65.40
2018-07-14T23:53:55.492Z,65.20
2018-07-14T23:56:23.875Z,65.00
